Aviation Digital Data Service (ADDS)

Output produced by METARs form (1247 UTC 17 September 2019)
found at http://www.aviationweather.gov/metar/data/
 
METAR text: RJTE 170349Z 09013KT 9999 FEW035 30/21 Q1008 RMK 2CU035 A2977
Conditions at: RJTE (TATEYAMA (JMSDF), JP) observed 0349 UTC 17 September 2019
Temperature: 30.0°C (86°F)
Dewpoint: 21.0°C (70°F) [RH = 59%]
Pressure (altimeter): 29.76 inches Hg (1008.0 mb)
Winds: from the E (90 degrees) at 15 MPH (13 knots; 6.7 m/s)
Visibility: 6 or more miles (10+ km)
Ceiling: at least 12,000 feet AGL
Clouds: few clouds at 3500 feet AGL
Weather: no significant weather observed at this time

METAR text: RJTE 160849Z 01005KT 340V040 9999 FEW005 SCT010 BKN050 24/23 Q1000 RMK 1ST005 4ST010 5SC050 A2954
Conditions at: RJTE (TATEYAMA (JMSDF), JP) observed 0849 UTC 16 September 2019
Temperature: 24.0°C (75°F)
Dewpoint: 23.0°C (73°F) [RH = 94%]
Pressure (altimeter): 29.53 inches Hg (1000.0 mb)
Winds: from the N (10 degrees) at 6 MPH (5 knots; 2.6 m/s)
Visibility: 6 or more miles (10+ km)
Ceiling: 5000 feet AGL
Clouds: few clouds at 500 feet AGL
scattered clouds at 1000 feet AGL
broken clouds at 5000 feet AGL
Weather: no significant weather observed at this time

METAR text: RJTE 160346Z 01008KT 5000 -SHRA BR FEW003 BKN010 BKN015 23/23 Q0999 RMK 1ST003 5ST010 7CU015 A2951
Conditions at: RJTE (TATEYAMA (JMSDF), JP) observed 0346 UTC 16 September 2019
Temperature: 23.0°C (73°F)
Dewpoint: 23.0°C (73°F) [RH = 100%]
Pressure (altimeter): 29.50 inches Hg (999.0 mb)
Winds: from the N (10 degrees) at 9 MPH (8 knots; 4.1 m/s)
Visibility: 3 miles ( 5 km)
Ceiling: 1000 feet AGL
Clouds: few clouds at 300 feet AGL
broken clouds at 1000 feet AGL
broken clouds at 1500 feet AGL
Weather: -SHRA BR  (light rain showers, mist)

METAR text: RJTE 160318Z 36009KT 340V040 4900 -SHRA BR FEW003 BKN010 BKN015 23/23 Q0999 RMK 2ST003 6ST010 7CU015 A2952
Conditions at: RJTE (TATEYAMA (JMSDF), JP) observed 0318 UTC 16 September 2019
Temperature: 23.0°C (73°F)
Dewpoint: 23.0°C (73°F) [RH = 100%]
Pressure (altimeter): 29.50 inches Hg (999.0 mb)
Winds: from the N (360 degrees) at 10 MPH (9 knots; 4.6 m/s)
Visibility: 3 miles ( 5 km)
Ceiling: 1000 feet AGL
Clouds: few clouds at 300 feet AGL
broken clouds at 1000 feet AGL
broken clouds at 1500 feet AGL
Weather: -SHRA BR  (light rain showers, mist)

METAR text: RJTE 160306Z 01011KT 5000 -SHRA BR FEW003 BKN008 BKN015 FEW015CB 24/23 Q0999 RMK 2ST003 6ST008 7CU015 1CB015 A2952 CB 10KM NW MOV N
Conditions at: RJTE (TATEYAMA (JMSDF), JP) observed 0306 UTC 16 September 2019
Temperature: 24.0°C (75°F)
Dewpoint: 23.0°C (73°F) [RH = 94%]
Pressure (altimeter): 29.50 inches Hg (999.0 mb)
Winds: from the N (10 degrees) at 13 MPH (11 knots; 5.7 m/s)
Visibility: 3 miles ( 5 km)
Ceiling: 800 feet AGL
Clouds: few clouds at 300 feet AGL
broken clouds at 800 feet AGL
broken clouds at 1500 feet AGL
few clouds at 1500 feet AGL
Weather: -SHRA BR  (light rain showers, mist)

METAR text: RJTE 160241Z 02011KT 4900 -SHRA BR FEW003 BKN008 BKN015 FEW015CB 24/23 Q0999 RMK 2ST003 6ST008 7CU015 1CB015 A2953 CB 10KM W MOV N
Conditions at: RJTE (TATEYAMA (JMSDF), JP) observed 0241 UTC 16 September 2019
Temperature: 24.0°C (75°F)
Dewpoint: 23.0°C (73°F) [RH = 94%]
Pressure (altimeter): 29.50 inches Hg (999.0 mb)
Winds: from the NNE (20 degrees) at 13 MPH (11 knots; 5.7 m/s)
Visibility: 3 miles ( 5 km)
Ceiling: 800 feet AGL
Clouds: few clouds at 300 feet AGL
broken clouds at 800 feet AGL
broken clouds at 1500 feet AGL
few clouds at 1500 feet AGL
Weather: -SHRA BR  (light rain showers, mist)

METAR text: RJTE 160230Z 01009KT 5000 -SHRA BR FEW003 BKN006 BKN015 FEW015CB 23/23 Q1000 RMK 2ST003 6ST006 7CU015 1CB015 A2953 CB 10KM W MOV N
Conditions at: RJTE (TATEYAMA (JMSDF), JP) observed 0230 UTC 16 September 2019
Temperature: 23.0°C (73°F)
Dewpoint: 23.0°C (73°F) [RH = 100%]
Pressure (altimeter): 29.53 inches Hg (1000.0 mb)
Winds: from the N (10 degrees) at 10 MPH (9 knots; 4.6 m/s)
Visibility: 3 miles ( 5 km)
Ceiling: 600 feet AGL
Clouds: few clouds at 300 feet AGL
broken clouds at 600 feet AGL
broken clouds at 1500 feet AGL
few clouds at 1500 feet AGL
Weather: -SHRA BR  (light rain showers, mist)

METAR text: RJTE 160211Z 02013KT 4000 -SHRA BR FEW003 BKN006 BKN015 FEW015CB 23/23 Q1000 RMK 2ST003 6ST006 7CU015 1CB015 A2954 CB 10KM SW MOV N
Conditions at: RJTE (TATEYAMA (JMSDF), JP) observed 0211 UTC 16 September 2019
Temperature: 23.0°C (73°F)
Dewpoint: 23.0°C (73°F) [RH = 100%]
Pressure (altimeter): 29.53 inches Hg (1000.0 mb)
Winds: from the NNE (20 degrees) at 15 MPH (13 knots; 6.7 m/s)
Visibility: 2.49 miles (4.01 km)
Ceiling: 600 feet AGL
Clouds: few clouds at 300 feet AGL
broken clouds at 600 feet AGL
broken clouds at 1500 feet AGL
few clouds at 1500 feet AGL
Weather: -SHRA BR  (light rain showers, mist)

METAR text: RJTE 160151Z 02010KT 3200 SHRA BR SCT003 BKN006 BKN015 SCT015CB 23/23 Q1000 RMK 3ST003 6ST006 7CU015 3CB015 A2954 CB OHD MOV N
Conditions at: RJTE (TATEYAMA (JMSDF), JP) observed 0151 UTC 16 September 2019
Temperature: 23.0°C (73°F)
Dewpoint: 23.0°C (73°F) [RH = 100%]
Pressure (altimeter): 29.53 inches Hg (1000.0 mb)
Winds: from the NNE (20 degrees) at 12 MPH (10 knots; 5.1 m/s)
Visibility: 1.99 miles (3.20 km)
Ceiling: 600 feet AGL
Clouds: scattered clouds at 300 feet AGL
broken clouds at 600 feet AGL
broken clouds at 1500 feet AGL
scattered clouds at 1500 feet AGL
Weather: SHRA BR  (rain showers, mist)

METAR text: RJTE 160050Z 36008KT 340V040 3100 +SHRA BR SCT003 BKN006 BKN015CB 23/23 Q1001 RMK 3ST003 6ST006 7CB015 A2956 CB OHD MOV N
Conditions at: RJTE (TATEYAMA (JMSDF), JP) observed 0050 UTC 16 September 2019
Temperature: 23.0°C (73°F)
Dewpoint: 23.0°C (73°F) [RH = 100%]
Pressure (altimeter): 29.56 inches Hg (1001.0 mb)
Winds: from the N (360 degrees) at 9 MPH (8 knots; 4.1 m/s)
Visibility: 1.93 miles (3.11 km)
Ceiling: 600 feet AGL
Clouds: scattered clouds at 300 feet AGL
broken clouds at 600 feet AGL
broken clouds at 1500 feet AGL
Weather: +SHRA BR  (heavy rain showers, mist)